Time;durP1;ratioP1;P1;durP2;ratioP2;P2;SDS_P1;SDS_P2;PMS_P1;PMS_P2;Temp;Humidity;BMP_temperature;BMP_pressure;BME280_temperature;BME280_humidity;BME280_pressure;Samples;Min_cycle;Max_cycle;Signal;HPM_P1;HPM_P2
2022/08/03 00:01:03;;;;;;;4.03;3.70;;;19.90;99.90;;;;;;5010896;28;20644;-60
2022/08/03 00:03:29;;;;;;;4.28;3.88;;;19.90;99.90;;;;;;5004116;28;20026;-61
2022/08/03 00:05:55;;;;;;;4.82;4.07;;;19.90;99.90;;;;;;5025330;28;20091;-61
2022/08/03 00:08:20;;;;;;;3.85;3.55;;;19.80;99.90;;;;;;5028328;28;20506;-61
2022/08/03 00:10:46;;;;;;;5.72;3.70;;;19.80;99.90;;;;;;5026865;28;20215;-62
2022/08/03 00:13:12;;;;;;;4.43;4.03;;;19.80;99.90;;;;;;5009581;28;20049;-60
2022/08/03 00:15:39;;;;;;;3.95;3.58;;;19.80;99.90;;;;;;5028360;28;20480;-61
2022/08/03 00:18:05;;;;;;;4.63;4.13;;;19.70;99.90;;;;;;5028136;28;20029;-61
2022/08/03 00:20:31;;;;;;;4.65;4.25;;;19.60;99.90;;;;;;5025084;28;20025;-61
2022/08/03 00:22:57;;;;;;;4.88;3.90;;;19.60;99.90;;;;;;5025482;28;20530;-61
2022/08/03 00:25:22;;;;;;;4.38;4.07;;;19.60;99.90;;;;;;5015132;28;20113;-61
2022/08/03 00:27:48;;;;;;;4.50;4.10;;;19.50;99.90;;;;;;5022200;28;20033;-61
2022/08/03 00:30:13;;;;;;;4.10;3.67;;;19.50;99.90;;;;;;5027188;28;20044;-60
2022/08/03 00:32:39;;;;;;;4.38;3.83;;;19.50;99.90;;;;;;5027429;28;20467;-60
2022/08/03 00:35:05;;;;;;;4.53;4.10;;;19.50;99.90;;;;;;5022772;28;20400;-61
2022/08/03 00:37:31;;;;;;;4.50;4.13;;;19.50;99.90;;;;;;5032091;28;20308;-61
2022/08/03 00:39:57;;;;;;;4.53;3.75;;;19.40;99.90;;;;;;5031936;28;20033;-61
2022/08/03 00:42:22;;;;;;;4.22;3.80;;;19.40;99.90;;;;;;5030921;28;20030;-61
2022/08/03 00:44:48;;;;;;;4.57;4.28;;;19.30;99.90;;;;;;5025669;28;20040;-62
2022/08/03 00:47:13;;;;;;;4.88;4.10;;;19.30;99.90;;;;;;5031799;28;20053;-60
2022/08/03 00:49:39;;;;;;;4.30;4.00;;;19.30;99.90;;;;;;5031198;28;20030;-61
2022/08/03 00:52:07;;;;;;;4.53;4.13;;;19.30;99.90;;;;;;5024396;28;20029;-62
2022/08/03 00:54:34;;;;;;;3.90;3.65;;;19.30;99.90;;;;;;5032077;28;20084;-61
2022/08/03 00:57:00;;;;;;;4.75;4.35;;;19.20;99.90;;;;;;5029842;28;20127;-61
2022/08/03 00:59:26;;;;;;;5.82;4.57;;;19.20;99.90;;;;;;5027271;28;20037;-61
2022/08/03 01:01:53;;;;;;;4.95;4.13;;;19.20;99.90;;;;;;5010498;28;20108;-60
2022/08/03 01:04:18;;;;;;;4.65;4.22;;;19.20;99.90;;;;;;5028057;28;20036;-59
2022/08/03 01:07:08;;;;;;;4.72;4.32;;;19.20;99.90;;;;;;5030885;28;20037;-61
2022/08/03 01:09:57;;;;;;;5.05;4.55;;;19.20;99.90;;;;;;5030214;28;20029;-60
2022/08/03 01:12:57;;;;;;;5.20;4.00;;;19.10;99.90;;;;;;5025584;28;20115;-60
2022/08/03 01:15:39;;;;;;;4.38;3.97;;;19.10;99.90;;;;;;4988509;28;20045;-60
2022/08/03 01:18:10;;;;;;;4.72;4.38;;;19.10;99.90;;;;;;5029559;28;20431;-60
2022/08/03 01:20:39;;;;;;;4.47;4.18;;;19.10;99.90;;;;;;5031577;28;20492;-60
2022/08/03 01:23:32;;;;;;;4.32;3.92;;;19.00;99.90;;;;;;5029419;28;20029;-59
2022/08/03 01:26:36;;;;;;;5.68;5.10;;;19.00;99.90;;;;;;5031202;28;20029;-59
2022/08/03 01:29:20;;;;;;;4.90;4.50;;;19.00;99.90;;;;;;5027449;28;20383;-61
2022/08/03 01:31:59;;;;;;;4.78;4.28;;;19.00;99.90;;;;;;5030739;28;20083;-58
2022/08/03 01:34:30;;;;;;;6.40;5.00;;;18.90;99.90;;;;;;5001188;28;20092;-60
2022/08/03 01:36:58;;;;;;;4.82;4.43;;;18.90;99.90;;;;;;5013384;28;20068;-60
2022/08/03 01:39:25;;;;;;;4.88;4.47;;;18.90;99.90;;;;;;5030439;28;20080;-60
2022/08/03 01:42:06;;;;;;;4.82;4.43;;;18.90;99.90;;;;;;5011777;28;20025;-60
2022/08/03 01:44:41;;;;;;;5.43;4.90;;;18.90;99.90;;;;;;5008788;28;20029;-59
2022/08/03 01:47:08;;;;;;;5.47;4.97;;;18.80;99.90;;;;;;5010996;28;20061;-61
2022/08/03 01:49:43;;;;;;;5.22;4.82;;;18.80;99.90;;;;;;4997078;28;20458;-58
2022/08/03 01:52:11;;;;;;;5.38;4.85;;;18.80;99.90;;;;;;5028369;28;20037;-60
2022/08/03 01:54:43;;;;;;;4.95;4.55;;;18.80;99.90;;;;;;5028790;28;20029;-60
2022/08/03 01:57:09;;;;;;;4.55;4.15;;;18.70;99.90;;;;;;5030763;28;20064;-58
2022/08/03 01:59:37;;;;;;;4.60;4.20;;;18.70;99.90;;;;;;5026092;28;20108;-60
2022/08/03 02:02:04;;;;;;;4.80;4.20;;;18.70;99.90;;;;;;5023745;28;20208;-59
2022/08/03 02:04:30;;;;;;;5.65;5.15;;;18.60;99.90;;;;;;5030475;28;20017;-60
2022/08/03 02:06:57;;;;;;;4.88;4.47;;;18.60;99.90;;;;;;5044322;23;20646;-63
2022/08/03 02:09:26;;;;;;;5.07;4.63;;;18.60;99.90;;;;;;5030092;28;20041;-65
2022/08/03 02:11:52;;;;;;;4.88;4.45;;;18.60;99.90;;;;;;5020881;28;20075;-64
2022/08/03 02:14:20;;;;;;;5.65;5.13;;;18.60;99.90;;;;;;5024817;28;20033;-64
2022/08/03 02:16:48;;;;;;;5.35;4.85;;;18.60;99.90;;;;;;5029412;28;20164;-64
2022/08/03 02:19:15;;;;;;;4.90;4.40;;;18.50;99.90;;;;;;5029238;28;20037;-63
2022/08/03 02:21:42;;;;;;;4.95;4.55;;;18.50;99.90;;;;;;5029407;28;20400;-62
2022/08/03 02:24:08;;;;;;;4.57;4.18;;;18.50;99.90;;;;;;5030508;28;20041;-64
2022/08/03 02:26:37;;;;;;;4.50;4.20;;;18.40;99.90;;;;;;5011648;28;20025;-63
2022/08/03 02:29:06;;;;;;;4.50;4.20;;;18.40;99.90;;;;;;5028919;28;20032;-64
2022/08/03 02:31:35;;;;;;;4.60;4.20;;;18.40;99.90;;;;;;5029574;28;20021;-65
2022/08/03 02:34:07;;;;;;;5.10;4.63;;;18.30;99.90;;;;;;5028955;28;20021;-65
2022/08/03 02:36:37;;;;;;;5.03;4.57;;;18.30;99.90;;;;;;5030310;28;20037;-64
2022/08/03 02:39:04;;;;;;;4.82;4.43;;;18.30;99.90;;;;;;5027974;28;20021;-66
2022/08/03 02:42:04;;;;;;;5.57;5.07;;;18.30;99.90;;;;;;5029280;28;20013;-64
2022/08/03 02:44:31;;;;;;;5.50;5.00;;;18.20;99.90;;;;;;5012927;28;20029;-64
2022/08/03 02:47:02;;;;;;;4.80;4.40;;;18.20;99.90;;;;;;5029703;28;20026;-64
2022/08/03 02:49:29;;;;;;;5.50;5.00;;;18.20;99.90;;;;;;5029681;28;20608;-64
2022/08/03 02:51:56;;;;;;;5.47;5.03;;;18.20;99.90;;;;;;5028756;28;20424;-64
2022/08/03 02:54:23;;;;;;;5.22;4.82;;;18.10;99.90;;;;;;5029611;28;20099;-63
2022/08/03 02:56:50;;;;;;;6.10;5.50;;;18.10;99.90;;;;;;5029464;28;20026;-64
2022/08/03 02:59:18;;;;;;;5.82;5.30;;;18.00;99.90;;;;;;5028182;28;20052;-65
2022/08/03 03:01:45;;;;;;;5.60;5.18;;;18.10;99.90;;;;;;5028412;28;20095;-64
2022/08/03 03:04:11;;;;;;;5.57;5.07;;;18.00;99.90;;;;;;5029231;28;20618;-64
2022/08/03 03:06:40;;;;;;;5.72;5.10;;;18.00;99.90;;;;;;5028554;28;20087;-65
2022/08/03 03:09:07;;;;;;;5.25;4.85;;;18.00;99.90;;;;;;5028801;28;20031;-64
2022/08/03 03:11:36;;;;;;;5.80;5.20;;;18.00;99.90;;;;;;5028086;28;20098;-64
2022/08/03 03:14:02;;;;;;;5.22;4.75;;;17.90;99.90;;;;;;5011720;28;20025;-64
2022/08/03 03:16:29;;;;;;;5.40;4.35;;;17.90;99.90;;;;;;5022895;28;20104;-64
2022/08/03 03:18:56;;;;;;;4.82;4.43;;;17.90;99.90;;;;;;5028757;28;20033;-63
2022/08/03 03:21:23;;;;;;;5.32;4.82;;;17.90;99.90;;;;;;5028482;28;20013;-64
2022/08/03 03:23:49;;;;;;;4.93;4.53;;;17.80;99.90;;;;;;5028686;28;20373;-63
2022/08/03 03:26:16;;;;;;;5.03;4.63;;;17.80;99.90;;;;;;5026925;28;20036;-64
2022/08/03 03:28:42;;;;;;;6.13;4.70;;;17.80;99.90;;;;;;5028210;28;20044;-62
2022/08/03 03:31:09;;;;;;;4.88;4.47;;;17.80;99.90;;;;;;5028191;28;20408;-64
2022/08/03 03:33:35;;;;;;;4.40;4.10;;;17.80;99.90;;;;;;5028309;28;20059;-63
2022/08/03 03:36:01;;;;;;;5.40;4.90;;;17.70;99.90;;;;;;5028971;28;20079;-64
2022/08/03 03:38:26;;;;;;;5.03;4.53;;;17.70;99.90;;;;;;5028315;28;20508;-63
2022/08/03 03:40:53;;;;;;;4.90;4.40;;;17.70;99.90;;;;;;5029048;28;20018;-65
2022/08/03 03:43:19;;;;;;;5.50;5.00;;;17.70;99.90;;;;;;5022784;28;20476;-63
2022/08/03 03:45:46;;;;;;;5.75;5.25;;;17.70;99.90;;;;;;5010607;28;20037;-63
2022/08/03 03:48:11;;;;;;;5.55;5.13;;;17.70;99.90;;;;;;5028741;28;20030;-63
2022/08/03 03:50:40;;;;;;;6.60;4.88;;;17.70;99.90;;;;;;5026782;28;20029;-63
2022/08/03 03:53:09;;;;;;;5.53;5.13;;;17.70;99.90;;;;;;5027478;28;20023;-63
2022/08/03 03:55:36;;;;;;;6.00;5.50;;;17.60;99.90;;;;;;5028390;28;20033;-63
2022/08/03 03:58:02;;;;;;;5.70;5.20;;;17.60;99.90;;;;;;5027778;28;20022;-64
2022/08/03 04:00:29;;;;;;;5.53;5.05;;;17.60;99.90;;;;;;5025996;28;20025;-63
2022/08/03 04:02:55;;;;;;;5.05;4.65;;;17.60;99.90;;;;;;5027332;28;20045;-64
2022/08/03 04:11:15;;;;;;;4.85;4.45;;;17.60;99.90;;;;;;5027201;28;20144;-63
2022/08/03 04:13:51;;;;;;;5.82;4.72;;;17.60;99.90;;;;;;5026424;28;20025;-64
2022/08/03 04:16:21;;;;;;;5.70;5.07;;;17.60;99.90;;;;;;5019906;28;20353;-64
2022/08/03 04:18:53;;;;;;;5.70;5.30;;;17.60;99.90;;;;;;5028121;28;20030;-64
2022/08/03 04:21:22;;;;;;;6.30;5.80;;;17.50;99.90;;;;;;5027625;28;20049;-64
2022/08/03 04:23:51;;;;;;;5.75;5.25;;;17.60;99.90;;;;;;5022506;28;20029;-64
2022/08/03 04:26:20;;;;;;;5.82;5.35;;;17.60;99.90;;;;;;5027566;28;20021;-64
2022/08/03 04:28:48;;;;;;;6.10;5.65;;;17.60;99.90;;;;;;5027000;28;20511;-64
2022/08/03 04:31:16;;;;;;;5.63;4.85;;;17.60;99.90;;;;;;5024703;28;20029;-64
2022/08/03 04:33:43;;;;;;;5.82;5.32;;;17.60;99.90;;;;;;5023206;28;20029;-63
2022/08/03 04:36:14;;;;;;;6.03;5.45;;;17.60;99.90;;;;;;5026800;28;20124;-64
2022/08/03 04:38:55;;;;;;;6.50;5.95;;;17.60;99.90;;;;;;5027804;28;20029;-64
2022/08/03 04:41:23;;;;;;;5.55;5.13;;;17.60;99.90;;;;;;5026308;28;20467;-63
2022/08/03 04:43:52;;;;;;;6.20;5.60;;;17.60;99.90;;;;;;5024793;28;20013;-64
2022/08/03 04:46:21;;;;;;;6.10;5.57;;;17.60;99.90;;;;;;5027510;28;20582;-64
2022/08/03 04:48:47;;;;;;;5.72;5.22;;;17.60;99.90;;;;;;5028031;28;20034;-65
2022/08/03 04:51:14;;;;;;;6.80;6.10;;;17.70;99.90;;;;;;5027515;28;20078;-65
2022/08/03 04:53:39;;;;;;;6.78;5.28;;;17.70;99.90;;;;;;5009009;28;20436;-64
2022/08/03 04:56:06;;;;;;;5.43;5.03;;;17.70;99.90;;;;;;5027943;28;20101;-64
2022/08/03 04:58:32;;;;;;;5.85;5.38;;;17.70;99.90;;;;;;5028264;28;20029;-64
2022/08/03 05:00:58;;;;;;;5.28;4.88;;;17.70;99.90;;;;;;5027208;28;20021;-64
2022/08/03 05:03:24;;;;;;;6.38;5.78;;;17.80;99.90;;;;;;5022266;28;20157;-63
2022/08/03 05:05:50;;;;;;;6.10;5.50;;;17.80;99.90;;;;;;5027642;28;20478;-64
2022/08/03 05:08:15;;;;;;;5.65;5.25;;;17.80;99.90;;;;;;5023511;28;20034;-64
2022/08/03 05:10:41;;;;;;;6.38;5.78;;;17.80;99.90;;;;;;5018619;28;20171;-63
2022/08/03 05:13:10;;;;;;;6.47;5.82;;;17.90;99.90;;;;;;5026829;28;20035;-64
2022/08/03 05:15:36;;;;;;;8.35;7.57;;;17.90;99.90;;;;;;5026603;28;20104;-64
2022/08/03 05:18:02;;;;;;;8.45;7.03;;;18.00;99.90;;;;;;5027930;28;20151;-64
2022/08/03 05:20:27;;;;;;;7.55;6.82;;;18.00;99.90;;;;;;5027801;28;20026;-63
2022/08/03 05:22:53;;;;;;;7.13;6.43;;;18.10;99.90;;;;;;5025507;28;20682;-64
2022/08/03 05:25:18;;;;;;;7.28;6.57;;;18.10;99.90;;;;;;5031256;28;20021;-64
2022/08/03 05:27:44;;;;;;;7.47;6.43;;;18.10;99.90;;;;;;5029216;28;20044;-64
2022/08/03 05:30:10;;;;;;;6.40;5.78;;;18.20;99.90;;;;;;5031219;28;20056;-64
2022/08/03 05:32:36;;;;;;;6.07;5.57;;;18.20;99.90;;;;;;5024795;28;20037;-64
2022/08/03 05:35:01;;;;;;;6.55;6.05;;;18.30;99.90;;;;;;5009448;28;20487;-64
2022/08/03 05:37:27;;;;;;;6.35;5.85;;;18.40;99.90;;;;;;5027076;28;20041;-64
2022/08/03 05:39:52;;;;;;;6.60;6.10;;;18.40;99.90;;;;;;5031216;28;20448;-64
2022/08/03 05:42:18;;;;;;;6.47;5.97;;;18.50;99.90;;;;;;5030158;28;20024;-63
2022/08/03 05:44:44;;;;;;;7.00;6.38;;;18.50;99.90;;;;;;5030639;28;20060;-64
2022/08/03 05:47:09;;;;;;;7.75;6.20;;;18.60;99.90;;;;;;5013186;28;20415;-64
2022/08/03 05:49:35;;;;;;;7.07;6.53;;;18.60;99.90;;;;;;5030876;28;20109;-64
2022/08/03 05:52:00;;;;;;;6.75;6.15;;;18.80;99.90;;;;;;5029947;28;20547;-64
2022/08/03 05:54:26;;;;;;;6.55;5.95;;;18.80;99.90;;;;;;5030951;28;20385;-64
2022/08/03 05:56:51;;;;;;;6.85;6.22;;;18.80;99.90;;;;;;5030849;28;20033;-64
2022/08/03 05:59:17;;;;;;;6.90;6.13;;;18.90;99.90;;;;;;5030382;28;20476;-64
2022/08/03 06:01:44;;;;;;;6.35;5.15;;;19.10;99.90;;;;;;5012074;28;20022;-64
2022/08/03 06:04:09;;;;;;;7.53;5.70;;;19.20;99.90;;;;;;5030565;28;20029;-64
2022/08/03 06:06:35;;;;;;;6.18;5.68;;;19.20;99.90;;;;;;5030241;28;20147;-64
2022/08/03 06:09:00;;;;;;;6.07;5.47;;;19.30;99.90;;;;;;5030315;28;20075;-64
2022/08/03 06:11:26;;;;;;;7.03;6.43;;;19.50;99.90;;;;;;5029930;28;20100;-64
2022/08/03 06:13:51;;;;;;;6.30;5.80;;;19.60;99.90;;;;;;5030109;28;20650;-65
2022/08/03 06:16:17;;;;;;;7.53;6.78;;;19.70;99.90;;;;;;5026633;28;20160;-65
2022/08/03 06:18:43;;;;;;;5.95;5.35;;;19.80;99.90;;;;;;5025077;28;20036;-65
2022/08/03 06:21:09;;;;;;;5.78;5.20;;;19.90;99.90;;;;;;5004077;28;20484;-67
2022/08/03 06:23:34;;;;;;;7.97;5.93;;;20.10;99.90;;;;;;5030130;28;20104;-65
2022/08/03 06:26:01;;;;;;;5.47;4.97;;;20.20;99.90;;;;;;5030405;28;20013;-65
2022/08/03 06:28:26;;;;;;;5.93;4.95;;;20.40;99.90;;;;;;5028615;28;20028;-65
2022/08/03 06:30:52;;;;;;;5.85;5.32;;;20.50;99.90;;;;;;5012701;28;20029;-65
2022/08/03 06:33:18;;;;;;;5.18;4.75;;;20.70;99.90;;;;;;5029008;28;20387;-66
2022/08/03 06:35:43;;;;;;;5.38;4.75;;;20.80;99.90;;;;;;5029833;28;20096;-66
2022/08/03 06:38:09;;;;;;;5.10;4.70;;;21.00;99.90;;;;;;5011975;28;20088;-65
2022/08/03 06:40:38;;;;;;;4.72;4.25;;;21.10;99.90;;;;;;5030528;28;20021;-66
2022/08/03 06:43:05;;;;;;;5.43;4.90;;;21.30;99.90;;;;;;5009104;28;20108;-65
2022/08/03 06:45:31;;;;;;;5.07;4.55;;;21.50;99.90;;;;;;5029025;28;20429;-65
2022/08/03 06:48:12;;;;;;;8.15;4.95;;;21.60;99.90;;;;;;5030111;28;20097;-66
2022/08/03 06:50:40;;;;;;;4.65;3.80;;;21.80;99.90;;;;;;5011882;28;20030;-66
2022/08/03 06:53:07;;;;;;;4.40;4.00;;;21.90;99.90;;;;;;5029368;28;20060;-66
2022/08/03 06:55:33;;;;;;;4.40;4.00;;;22.10;99.90;;;;;;5029197;28;20056;-66
2022/08/03 06:57:59;;;;;;;4.03;3.72;;;22.30;99.90;;;;;;5021255;28;20056;-68
2022/08/03 07:00:25;;;;;;;4.07;3.65;;;22.40;99.90;;;;;;5011483;28;20806;-66
2022/08/03 07:02:51;;;;;;;3.92;3.50;;;22.60;99.90;;;;;;5024468;28;20056;-66
2022/08/03 07:05:16;;;;;;;10.30;5.32;;;22.80;99.90;;;;;;5025695;28;20018;-66
2022/08/03 07:07:43;;;;;;;3.85;3.55;;;23.00;99.90;;;;;;5010826;28;20064;-66
2022/08/03 07:10:10;;;;;;;3.33;3.10;;;23.20;99.90;;;;;;5029701;28;20555;-66
2022/08/03 07:12:37;;;;;;;3.58;3.25;;;23.30;99.90;;;;;;5029006;28;20025;-66
2022/08/03 07:15:04;;;;;;;3.47;2.67;;;23.60;99.90;;;;;;5028891;28;20040;-67
2022/08/03 07:17:31;;;;;;;2.67;2.47;;;23.80;99.90;;;;;;5007655;28;20025;-69
2022/08/03 07:19:58;;;;;;;4.15;2.40;;;24.00;99.90;;;;;;5027919;28;20130;-67
2022/08/03 07:22:23;;;;;;;5.75;2.25;;;24.10;99.90;;;;;;5020296;28;20022;-66
2022/08/03 07:24:49;;;;;;;3.67;2.17;;;24.30;99.90;;;;;;5028531;28;20076;-66
2022/08/03 07:27:15;;;;;;;2.30;2.10;;;24.50;99.90;;;;;;5029252;28;20079;-66
2022/08/03 07:29:41;;;;;;;9.95;2.42;;;24.70;99.90;;;;;;5028608;28;20022;-66
2022/08/03 07:32:06;;;;;;;3.05;1.83;;;24.90;99.90;;;;;;5028115;28;20541;-68
2022/08/03 07:34:32;;;;;;;5.78;1.80;;;25.10;99.90;;;;;;5028801;28;20032;-67
2022/08/03 07:36:58;;;;;;;2.38;1.73;;;25.20;99.90;;;;;;5027249;28;20109;-65
2022/08/03 07:39:23;;;;;;;3.78;2.05;;;25.40;99.90;;;;;;5028494;28;20100;-65
2022/08/03 07:41:50;;;;;;;1.95;1.80;;;25.50;99.90;;;;;;5010998;28;20018;-66
2022/08/03 07:44:17;;;;;;;3.03;2.25;;;25.60;99.90;;;;;;5010963;28;20021;-66
2022/08/03 07:46:42;;;;;;;1.75;1.65;;;25.60;99.90;;;;;;5027743;28;20132;-67
2022/08/03 07:49:08;;;;;;;1.90;1.80;;;25.70;99.90;;;;;;5028455;28;20025;-65
2022/08/03 07:51:34;;;;;;;2.90;1.80;;;25.70;99.90;;;;;;5028121;28;20367;-66
2022/08/03 07:54:00;;;;;;;4.22;2.08;;;25.90;99.90;;;;;;5028679;28;20482;-65
2022/08/03 07:56:25;;;;;;;2.00;1.80;;;26.10;99.90;;;;;;5010877;28;20492;-66
2022/08/03 07:58:52;;;;;;;2.75;2.30;;;26.30;99.90;;;;;;5027805;28;20223;-63
2022/08/03 08:01:18;;;;;;;2.25;2.00;;;26.50;99.90;;;;;;5027198;28;20021;-65
2022/08/03 08:03:44;;;;;;;1.92;1.73;;;26.70;99.90;;;;;;5021691;28;20018;-65
2022/08/03 08:06:10;;;;;;;2.65;2.00;;;26.90;99.90;;;;;;5009122;28;20028;-65
2022/08/03 08:08:37;;;;;;;3.33;1.90;;;27.10;99.50;;;;;;5028483;28;20029;-65
2022/08/03 08:11:03;;;;;;;2.95;1.50;;;27.10;98.80;;;;;;5052774;22;20045;-59
2022/08/03 08:13:29;;;;;;;2.33;2.13;;;27.20;99.90;;;;;;5027514;28;20025;-59
2022/08/03 08:15:55;;;;;;;3.08;1.73;;;27.30;98.60;;;;;;5029723;28;20431;-59
2022/08/03 08:18:20;;;;;;;2.85;1.55;;;27.50;99.50;;;;;;5028847;28;20029;-58
2022/08/03 08:20:46;;;;;;;2.30;2.10;;;27.70;98.20;;;;;;5028810;28;20105;-60
2022/08/03 08:23:12;;;;;;;2.28;1.83;;;27.90;97.60;;;;;;5010792;28;20029;-58
2022/08/03 08:25:37;;;;;;;1.80;1.60;;;28.00;96.90;;;;;;5029620;28;20025;-59
2022/08/03 08:28:03;;;;;;;3.05;1.55;;;28.20;97.40;;;;;;5010316;28;20055;-61
2022/08/03 08:30:30;;;;;;;5.60;2.17;;;28.30;97.30;;;;;;5028361;28;20103;-60
2022/08/03 08:32:56;;;;;;;3.60;1.90;;;28.40;97.20;;;;;;5027986;28;20033;-60
2022/08/03 08:35:22;;;;;;;1.55;1.40;;;28.50;96.40;;;;;;5023398;28;20043;-60
2022/08/03 08:37:48;;;;;;;2.05;1.85;;;28.70;97.00;;;;;;5029084;28;20156;-59
2022/08/03 08:40:13;;;;;;;4.03;1.60;;;28.90;95.70;;;;;;5010515;28;20112;-60
2022/08/03 08:42:40;;;;;;;2.17;1.60;;;29.00;96.20;;;;;;5020596;28;20523;-61
2022/08/03 08:45:08;;;;;;;3.35;1.88;;;29.00;96.20;;;;;;5028387;28;20056;-61
2022/08/03 08:47:37;;;;;;;2.08;1.80;;;29.10;96.00;;;;;;5029229;28;20029;-60
2022/08/03 08:50:03;;;;;;;2.15;1.58;;;29.20;96.20;;;;;;5021688;28;20029;-59
2022/08/03 08:52:30;;;;;;;3.05;1.73;;;29.30;95.10;;;;;;5022776;28;20032;-60
2022/08/03 08:55:04;;;;;;;1.83;1.70;;;29.10;95.10;;;;;;5028687;28;20030;-59
2022/08/03 08:57:46;;;;;;;2.72;1.90;;;29.20;94.90;;;;;;5030889;28;20227;-62
2022/08/03 09:00:13;;;;;;;2.47;2.08;;;29.20;95.10;;;;;;5029628;28;20022;-61
2022/08/03 09:02:41;;;;;;;2.47;1.48;;;29.20;95.20;;;;;;5031847;28;20018;-63
2022/08/03 09:05:12;;;;;;;3.67;1.90;;;29.20;95.20;;;;;;5032420;28;20020;-60
2022/08/03 09:07:39;;;;;;;2.05;1.55;;;29.20;95.50;;;;;;5032338;28;20029;-60
2022/08/03 09:10:07;;;;;;;1.73;1.63;;;29.30;95.10;;;;;;5032721;28;20029;-59
2022/08/03 09:12:44;;;;;;;2.45;1.40;;;29.40;95.10;;;;;;5014299;28;20029;-57
2022/08/03 09:15:26;;;;;;;2.30;1.80;;;29.50;94.90;;;;;;5024864;28;20033;-60
2022/08/03 09:17:55;;;;;;;4.45;2.17;;;29.60;94.60;;;;;;5031466;28;20163;-59
2022/08/03 09:20:22;;;;;;;3.55;1.52;;;29.70;93.90;;;;;;5031345;28;20029;-60
2022/08/03 09:22:58;;;;;;;2.60;1.75;;;29.70;93.70;;;;;;5030037;28;20029;-61
2022/08/03 09:25:29;;;;;;;3.65;1.90;;;29.60;93.50;;;;;;5025433;28;20018;-59
2022/08/03 09:28:07;;;;;;;5.25;1.80;;;29.60;93.60;;;;;;5031048;28;20045;-60
2022/08/03 09:30:33;;;;;;;3.20;1.85;;;29.80;94.00;;;;;;5030926;28;20133;-62
2022/08/03 09:33:09;;;;;;;1.92;1.42;;;29.70;93.70;;;;;;5031477;28;20382;-60
2022/08/03 09:35:50;;;;;;;5.60;2.25;;;29.70;93.90;;;;;;5018047;28;20029;-61
2022/08/03 09:38:25;;;;;;;2.97;1.98;;;29.70;94.50;;;;;;5002701;28;20033;-60
2022/08/03 09:40:51;;;;;;;2.72;1.75;;;29.80;94.20;;;;;;5017140;28;20416;-62
2022/08/03 09:43:17;;;;;;;4.32;1.70;;;29.80;93.90;;;;;;5027302;28;20050;-62
2022/08/03 09:45:45;;;;;;;2.60;1.85;;;29.90;94.00;;;;;;5031865;28;20099;-60
2022/08/03 09:48:32;;;;;;;3.15;2.08;;;29.90;94.00;;;;;;5031930;28;20049;-59
2022/08/03 09:51:04;;;;;;;2.20;1.73;;;30.00;93.90;;;;;;5029331;28;20041;-60
2022/08/03 09:53:30;;;;;;;3.95;1.90;;;29.90;93.20;;;;;;5031022;28;20021;-60
2022/08/03 09:55:59;;;;;;;5.18;1.40;;;29.80;93.50;;;;;;5030827;28;20031;-61
2022/08/03 09:58:28;;;;;;;2.47;1.80;;;29.90;94.00;;;;;;5031542;28;20025;-58
2022/08/03 10:01:02;;;;;;;2.10;1.38;;;29.90;93.80;;;;;;5013304;28;20071;-58
2022/08/03 10:03:34;;;;;;;2.40;1.90;;;30.00;93.20;;;;;;5024029;28;20796;-59
2022/08/03 10:06:15;;;;;;;4.65;1.98;;;30.00;94.00;;;;;;5030792;28;20439;-60
2022/08/03 10:08:40;;;;;;;5.10;2.13;;;30.10;94.40;;;;;;5030239;28;20104;-60
2022/08/03 10:11:06;;;;;;;2.38;1.50;;;30.20;93.40;;;;;;5030808;28;20133;-60
2022/08/03 10:13:32;;;;;;;1.52;1.42;;;30.20;92.90;;;;;;5031176;28;20037;-62
2022/08/03 10:15:58;;;;;;;1.23;1.20;;;30.20;93.50;;;;;;5031525;28;20154;-62
2022/08/03 10:18:23;;;;;;;3.05;1.73;;;30.20;93.80;;;;;;5025895;28;20061;-61
2022/08/03 10:20:53;;;;;;;2.90;1.60;;;30.20;93.60;;;;;;5031376;28;20104;-63
2022/08/03 10:23:20;;;;;;;5.43;2.90;;;30.20;93.50;;;;;;5024912;28;20107;-60
2022/08/03 10:25:48;;;;;;;2.78;1.40;;;30.20;92.80;;;;;;5030918;28;20029;-60
2022/08/03 10:28:17;;;;;;;4.03;1.80;;;30.20;93.50;;;;;;5031121;28;20032;-58
2022/08/03 10:30:47;;;;;;;1.50;1.40;;;30.20;93.30;;;;;;5031876;28;20053;-60
2022/08/03 10:33:26;;;;;;;3.00;1.98;;;30.10;93.10;;;;;;5029222;28;20056;-58
2022/08/03 10:35:55;;;;;;;2.13;1.30;;;30.00;92.70;;;;;;5010654;28;20606;-55
2022/08/03 10:38:27;;;;;;;3.55;1.42;;;29.90;93.20;;;;;;5030897;28;20033;-55
2022/08/03 10:40:54;;;;;;;5.38;1.95;;;29.90;93.60;;;;;;5028670;28;20105;-62
2022/08/03 10:43:47;;;;;;;2.47;1.52;;;30.00;94.20;;;;;;5029753;28;20025;-60
2022/08/03 10:46:14;;;;;;;3.08;1.50;;;30.10;93.60;;;;;;5030242;28;20041;-58
2022/08/03 10:48:40;;;;;;;3.35;1.55;;;30.10;93.40;;;;;;5030749;28;20025;-59
2022/08/03 10:51:06;;;;;;;3.85;1.50;;;30.20;93.20;;;;;;5029890;28;20032;-59
2022/08/03 10:53:41;;;;;;;2.28;1.15;;;30.20;92.90;;;;;;5012027;28;20025;-59
2022/08/03 10:59:36;;;;;;;4.10;1.77;;;30.20;93.30;;;;;;5026337;28;20036;-60
2022/08/03 11:02:01;;;;;;;2.08;1.48;;;30.30;93.40;;;;;;5029724;28;20387;-60
2022/08/03 11:04:28;;;;;;;2.53;1.45;;;30.30;92.70;;;;;;5029457;28;20018;-61
2022/08/03 11:07:18;;;;;;;3.20;1.63;;;30.30;91.70;;;;;;5030478;28;20472;-58
2022/08/03 11:09:47;;;;;;;2.97;1.42;;;30.10;92.00;;;;;;5027765;28;20025;-59
2022/08/03 11:12:30;;;;;;;5.28;1.48;;;30.00;92.20;;;;;;5029439;28;20095;-59
2022/08/03 11:14:57;;;;;;;4.53;1.40;;;29.90;92.50;;;;;;5011955;28;20018;-61
2022/08/03 11:17:23;;;;;;;3.47;1.75;;;29.90;93.20;;;;;;5027278;28;20030;-61
2022/08/03 11:19:51;;;;;;;2.70;1.67;;;30.00;92.80;;;;;;5030513;28;21235;-59
2022/08/03 11:22:19;;;;;;;3.22;1.83;;;30.20;93.70;;;;;;5025593;28;20029;-62
2022/08/03 11:24:52;;;;;;;4.25;1.80;;;30.30;92.20;;;;;;5029956;28;20041;-61
2022/08/03 11:27:29;;;;;;;3.20;1.88;;;30.30;92.60;;;;;;5005105;28;20021;-60
2022/08/03 11:30:21;;;;;;;1.65;1.17;;;30.20;92.40;;;;;;5027681;28;20564;-60
2022/08/03 11:32:47;;;;;;;2.88;1.40;;;30.10;92.00;;;;;;5027984;28;20025;-58
2022/08/03 11:35:23;;;;;;;1.38;1.23;;;29.90;92.30;;;;;;5030375;28;20052;-61
2022/08/03 11:38:01;;;;;;;3.20;1.48;;;29.80;92.20;;;;;;5023199;28;20025;-61
2022/08/03 11:40:50;;;;;;;2.88;1.13;;;29.70;92.60;;;;;;5029904;28;20048;-58
2022/08/03 11:43:22;;;;;;;2.65;1.50;;;29.60;93.10;;;;;;5023435;28;20642;-60
2022/08/03 11:46:07;;;;;;;2.00;1.10;;;29.60;92.90;;;;;;5030490;28;20018;-62
2022/08/03 11:48:32;;;;;;;3.40;1.30;;;29.60;92.00;;;;;;5025224;28;20032;-62
2022/08/03 11:50:59;;;;;;;2.13;1.20;;;29.60;91.90;;;;;;5030090;28;20017;-61
2022/08/03 11:53:25;;;;;;;2.08;1.40;;;29.70;92.80;;;;;;5028980;28;20039;-61
2022/08/03 11:55:52;;;;;;;5.53;1.77;;;29.80;92.20;;;;;;5029704;28;20395;-61
2022/08/03 11:58:19;;;;;;;3.05;1.60;;;29.80;92.30;;;;;;5029016;28;20140;-60
2022/08/03 12:00:45;;;;;;;5.18;1.77;;;29.90;92.40;;;;;;5028675;28;20416;-61
2022/08/03 12:03:13;;;;;;;4.55;1.50;;;30.00;91.30;;;;;;5028350;28;20040;-58
2022/08/03 12:05:41;;;;;;;3.55;1.77;;;30.10;91.20;;;;;;5028735;28;20104;-59
2022/08/03 12:08:09;;;;;;;7.20;1.85;;;30.10;91.40;;;;;;5029285;28;20021;-60
2022/08/03 12:10:36;;;;;;;3.75;1.45;;;30.20;90.90;;;;;;5028974;28;20029;-59
2022/08/03 12:13:07;;;;;;;4.15;1.55;;;30.20;90.60;;;;;;5025696;28;20044;-60
2022/08/03 12:15:34;;;;;;;2.58;2.05;;;30.20;91.50;;;;;;5029475;28;20029;-58
2022/08/03 12:18:00;;;;;;;2.20;1.23;;;30.10;91.30;;;;;;5026346;28;20117;-58
2022/08/03 12:20:29;;;;;;;3.22;1.80;;;30.20;91.40;;;;;;5029409;28;20097;-59
2022/08/03 12:23:04;;;;;;;2.13;1.33;;;30.30;91.00;;;;;;5024054;28;20018;-58
2022/08/03 12:25:31;;;;;;;2.63;1.85;;;30.40;90.90;;;;;;5029801;28;20022;-61
2022/08/03 12:28:10;;;;;;;2.83;1.85;;;30.40;91.80;;;;;;5005963;28;20030;-61
2022/08/03 12:30:37;;;;;;;3.97;1.73;;;30.40;90.20;;;;;;5029398;28;20607;-62
2022/08/03 12:33:23;;;;;;;2.47;1.35;;;30.50;90.70;;;;;;5032232;28;20034;-62
2022/08/03 12:36:15;;;;;;;2.58;1.75;;;30.50;91.30;;;;;;5033320;28;20447;-59
2022/08/03 12:38:41;;;;;;;7.43;1.75;;;30.60;90.90;;;;;;5009264;28;20044;-61
2022/08/03 12:41:14;;;;;;;2.70;1.23;;;30.70;91.10;;;;;;5032775;28;20030;-60
2022/08/03 12:43:50;;;;;;;4.63;1.92;;;30.80;90.90;;;;;;5032902;28;20021;-62
2022/08/03 12:46:18;;;;;;;3.38;1.17;;;30.90;90.20;;;;;;5023702;28;20029;-60
2022/08/03 12:49:14;;;;;;;3.83;1.45;;;31.10;90.20;;;;;;5030566;28;20025;-58
2022/08/03 12:51:42;;;;;;;3.83;1.25;;;31.10;90.10;;;;;;5016668;28;20112;-60
2022/08/03 12:54:18;;;;;;;2.70;1.50;;;31.20;90.40;;;;;;5014924;28;20045;-60
2022/08/03 12:57:04;;;;;;;2.70;1.67;;;31.20;90.10;;;;;;5031851;28;20029;-62
2022/08/03 12:59:34;;;;;;;;;;;31.30;90.00;;;;;;5028406;28;20491;-58
2022/08/03 13:02:00;;;;;;;2.22;1.10;;;31.30;90.20;;;;;;5031986;28;20302;-59
2022/08/03 13:04:35;;;;;;;9.00;1.77;;;31.30;89.10;;;;;;5032653;28;20021;-58
2022/08/03 13:07:03;;;;;;;2.85;1.63;;;31.40;88.40;;;;;;5033339;28;20021;-59